Дата Пункты Температура Давл., мм. Влажн., % Ветер Погодные явления
Воздуха Воды Направл. Скорость
08.09.15 05:00 Одесса 16.0 22.0 758 67 Пн-З 2 06 часов
08.09.15 02:00 Одесса 18.0 22.0 758 68 Пн 2 03 часа
07.09.15 08:00 Одесса 20.0 22.0 758 64 Пд 2 21 час
07.09.15 05:00 Одесса 21.0 23.0 758 57 Пд 3 18 часов
07.09.15 02:00 Одесса 22.0 23.0 758 52 Пд 4 15 часов
07.09.15 11:00 Одесса 23.0 22.0 759 42 Пн-З 2 12 часов
07.09.15 08:00 Одесса 19.0 22.0 759 65 Пн-З 2 09 часов
07.09.15 05:00 Одесса 14.0 22.0 758 88 З 2 06 часов
07.09.15 02:00 Одесса 16.0 22.0 757 80 Пн-З 2 03 часа
06.09.15 08:00 Одесса 22.0 22.0 755 66 Пн-З 2 21 час
06.09.15 05:00 Одесса 26.0 23.0 752 63 З 6 18 часов
06.09.15 02:00 Одесса 27.0 23.0 750 85 Пд 4 15 часов
06.09.15 11:00 Одесса 26.0 22.0 751 85 Пд 2 12 часов
06.09.15 08:00 Одесса 25.0 22.0 752 90 Пд 3 09 часов
06.09.15 05:00 Одесса 24.0 22.0 752 95 Пд 2 06 часов
06.09.15 02:00 Одесса 23.0 22.0 753 99 Пд-З 2 03 часа
05.09.15 08:00 Одесса 24.0 23.0 755 90 Пд 3 21 час
05.09.15 05:00 Одесса 26.0 23.0 756 78 Пд 3 18 часов
05.09.15 02:00 Одесса 26.0 23.0 757 78 Пд 5 15 часов
05.09.15 11:00 Одесса 28.0 23.0 757 48 Пд-С 1 12 часов
Количество строк
321 322 323 324 325 326 327 328 329 330
Page 328 of 458